KRCA/RCA METAR and TAF weather

Enter ICAO airport designator
Station Type Date Time Source
KRCA METAR 2018/12/12 11:56 UTC NOAA

KRCA 121156Z AUTO 25005KT 10SM BKN120 M03/M06 A2958 RMK AO2 SLP049 T10331058 11019 21075 57020 $


Station Type Date Time Source
KRCA Decoded METAR 2018/12/12 11:56 UTC NOAA

Ellsworth Air Force Base, SD, United States (KRCA) 44-09N 103-06W
Dec 12, 2018 - 06:56 AM EST / 2018.12.12 1156 UTC
Wind: from the WSW (250 degrees) at 6 MPH (5 KT):0
Visibility: 10 mile(s):0
Sky conditions: mostly cloudy
Temperature: 26.1 F (-3.3 C)
Windchill: 19 F (-7 C):1
Dew Point: 21.6 F (-5.8 C)
Relative Humidity: 82%
Pressure (altimeter): 29.58 in. Hg (1001 hPa)
Pressure tendency: 0.06 inches (2.0 hPa) lower than three hours ago
ob: KRCA 121156Z AUTO 25005KT 10SM BKN120 M03/M06 A2958 RMK AO2 SLP049 T10331058 11019 21075 57020
cycle: 12

Station Type Date Time Source
KRCA TAF 2018/12/12 11:09 UTC NOAA

TAF KRCA 121102Z 1211/1317 VRB06KT 9999 BKN100 621009 QNH2960INS
BECMG 1217/1218 32012G18KT 9999 OVC100 621009 510001 QNH2960INS
BECMG 1220/1221 32015G25KT 8000 -RASN OVC060 610609 611504 520001 QNH2965INS
BECMG 1302/1303 31025G35KT 9999 NSW SCT100 520001 QNH2980INS
BECMG 1312/1313 31015G25KT 9999 SCT100 520001 QNH3011INS TX03/1218Z TNM05/1211Z


Example: see airport list